sensor_id;sensor_type;location;lat;lon;timestamp;P1;durP1;ratioP1;P2;durP2;ratioP2
28003;SDS011;15330;51.234;6.754;2022-09-25T00:01:36;24.05;;;12.73;;
28003;SDS011;15330;51.234;6.754;2022-09-25T00:04:01;20.85;;;12.45;;
28003;SDS011;15330;51.234;6.754;2022-09-25T00:06:27;21.55;;;11.48;;
28003;SDS011;15330;51.234;6.754;2022-09-25T00:08:54;19.55;;;10.93;;
28003;SDS011;15330;51.234;6.754;2022-09-25T00:13:54;20.13;;;10.15;;
28003;SDS011;15330;51.234;6.754;2022-09-25T00:16:21;20.05;;;10.13;;
28003;SDS011;15330;51.234;6.754;2022-09-25T00:18:48;14.35;;;9.02;;
28003;SDS011;15330;51.234;6.754;2022-09-25T00:21:33;17.67;;;9.48;;
28003;SDS011;15330;51.234;6.754;2022-09-25T00:24:00;17.40;;;9.35;;
28003;SDS011;15330;51.234;6.754;2022-09-25T00:26:28;16.20;;;9.32;;
28003;SDS011;15330;51.234;6.754;2022-09-25T00:28:54;20.17;;;9.65;;
28003;SDS011;15330;51.234;6.754;2022-09-25T00:31:20;18.15;;;10.07;;
28003;SDS011;15330;51.234;6.754;2022-09-25T00:33:51;16.02;;;9.20;;
28003;SDS011;15330;51.234;6.754;2022-09-25T00:36:18;15.35;;;9.60;;
28003;SDS011;15330;51.234;6.754;2022-09-25T00:38:44;18.38;;;9.95;;
28003;SDS011;15330;51.234;6.754;2022-09-25T00:41:12;20.83;;;9.45;;
28003;SDS011;15330;51.234;6.754;2022-09-25T00:46:05;20.85;;;9.65;;
28003;SDS011;15330;51.234;6.754;2022-09-25T00:48:49;21.13;;;9.85;;
28003;SDS011;15330;51.234;6.754;2022-09-25T00:51:17;21.13;;;10.15;;
28003;SDS011;15330;51.234;6.754;2022-09-25T00:53:50;14.63;;;8.50;;
28003;SDS011;15330;51.234;6.754;2022-09-25T00:56:15;15.68;;;8.25;;
28003;SDS011;15330;51.234;6.754;2022-09-25T00:58:41;20.60;;;8.77;;
28003;SDS011;15330;51.234;6.754;2022-09-25T01:01:06;21.02;;;9.05;;
28003;SDS011;15330;51.234;6.754;2022-09-25T01:03:32;18.02;;;8.13;;
28003;SDS011;15330;51.234;6.754;2022-09-25T01:05:59;14.25;;;7.43;;
28003;SDS011;15330;51.234;6.754;2022-09-25T01:08:25;15.68;;;7.90;;
28003;SDS011;15330;51.234;6.754;2022-09-25T01:10:54;12.30;;;7.03;;
28003;SDS011;15330;51.234;6.754;2022-09-25T01:13:20;18.30;;;7.53;;
28003;SDS011;15330;51.234;6.754;2022-09-25T01:21:53;10.77;;;6.53;;
28003;SDS011;15330;51.234;6.754;2022-09-25T01:24:34;13.95;;;8.23;;
28003;SDS011;15330;51.234;6.754;2022-09-25T01:30:10;18.08;;;7.43;;
28003;SDS011;15330;51.234;6.754;2022-09-25T01:32:41;16.05;;;7.00;;
28003;SDS011;15330;51.234;6.754;2022-09-25T01:37:47;13.45;;;6.65;;
28003;SDS011;15330;51.234;6.754;2022-09-25T01:40:24;16.10;;;5.95;;
28003;SDS011;15330;51.234;6.754;2022-09-25T01:43:05;10.00;;;6.10;;
28003;SDS011;15330;51.234;6.754;2022-09-25T01:45:37;11.57;;;4.90;;
28003;SDS011;15330;51.234;6.754;2022-09-25T01:48:08;15.20;;;5.15;;
28003;SDS011;15330;51.234;6.754;2022-09-25T01:50:43;14.20;;;4.95;;
28003;SDS011;15330;51.234;6.754;2022-09-25T01:53:15;17.83;;;4.95;;
28003;SDS011;15330;51.234;6.754;2022-09-25T01:55:46;16.90;;;4.65;;
28003;SDS011;15330;51.234;6.754;2022-09-25T01:58:33;17.83;;;4.40;;
28003;SDS011;15330;51.234;6.754;2022-09-25T02:01:25;16.10;;;4.68;;
28003;SDS011;15330;51.234;6.754;2022-09-25T02:04:04;15.88;;;4.85;;
28003;SDS011;15330;51.234;6.754;2022-09-25T02:06:41;18.20;;;5.60;;
28003;SDS011;15330;51.234;6.754;2022-09-25T02:09:17;15.73;;;5.75;;
28003;SDS011;15330;51.234;6.754;2022-09-25T02:11:47;13.02;;;4.85;;
28003;SDS011;15330;51.234;6.754;2022-09-25T02:14:20;17.95;;;4.93;;
28003;SDS011;15330;51.234;6.754;2022-09-25T02:16:52;14.43;;;4.75;;
28003;SDS011;15330;51.234;6.754;2022-09-25T02:19:20;13.13;;;4.10;;
28003;SDS011;15330;51.234;6.754;2022-09-25T02:22:09;12.48;;;4.05;;
28003;SDS011;15330;51.234;6.754;2022-09-25T02:27:36;16.85;;;4.13;;
28003;SDS011;15330;51.234;6.754;2022-09-25T02:30:02;12.23;;;3.83;;
28003;SDS011;15330;51.234;6.754;2022-09-25T02:32:28;8.18;;;3.17;;
28003;SDS011;15330;51.234;6.754;2022-09-25T02:34:55;13.73;;;3.88;;
28003;SDS011;15330;51.234;6.754;2022-09-25T02:37:21;11.63;;;3.85;;
28003;SDS011;15330;51.234;6.754;2022-09-25T02:39:48;8.90;;;3.22;;
28003;SDS011;15330;51.234;6.754;2022-09-25T02:42:19;13.43;;;3.42;;
28003;SDS011;15330;51.234;6.754;2022-09-25T02:58:39;12.45;;;3.35;;
28003;SDS011;15330;51.234;6.754;2022-09-25T03:01:09;14.75;;;3.35;;
28003;SDS011;15330;51.234;6.754;2022-09-25T03:03:38;12.90;;;3.17;;
28003;SDS011;15330;51.234;6.754;2022-09-25T03:06:04;8.90;;;2.67;;
28003;SDS011;15330;51.234;6.754;2022-09-25T03:08:32;14.82;;;3.70;;
28003;SDS011;15330;51.234;6.754;2022-09-25T03:11:04;14.00;;;4.10;;
28003;SDS011;15330;51.234;6.754;2022-09-25T03:13:31;10.68;;;3.72;;
28003;SDS011;15330;51.234;6.754;2022-09-25T03:16:22;13.15;;;2.72;;
28003;SDS011;15330;51.234;6.754;2022-09-25T03:18:47;8.63;;;2.95;;
28003;SDS011;15330;51.234;6.754;2022-09-25T03:21:12;17.75;;;3.38;;
28003;SDS011;15330;51.234;6.754;2022-09-25T03:23:38;15.48;;;3.00;;
28003;SDS011;15330;51.234;6.754;2022-09-25T03:26:03;12.93;;;3.20;;
28003;SDS011;15330;51.234;6.754;2022-09-25T03:28:29;13.98;;;2.95;;
28003;SDS011;15330;51.234;6.754;2022-09-25T03:30:56;13.88;;;3.30;;
28003;SDS011;15330;51.234;6.754;2022-09-25T03:33:23;9.75;;;2.90;;
28003;SDS011;15330;51.234;6.754;2022-09-25T03:35:58;11.95;;;2.92;;
28003;SDS011;15330;51.234;6.754;2022-09-25T03:38:24;11.85;;;3.38;;
28003;SDS011;15330;51.234;6.754;2022-09-25T03:40:50;11.57;;;2.95;;
28003;SDS011;15330;51.234;6.754;2022-09-25T03:43:15;13.35;;;3.30;;
28003;SDS011;15330;51.234;6.754;2022-09-25T03:45:40;13.50;;;3.03;;
28003;SDS011;15330;51.234;6.754;2022-09-25T03:48:06;14.57;;;2.83;;
28003;SDS011;15330;51.234;6.754;2022-09-25T03:50:31;11.63;;;3.00;;
28003;SDS011;15330;51.234;6.754;2022-09-25T03:52:56;12.52;;;3.08;;
28003;SDS011;15330;51.234;6.754;2022-09-25T03:55:22;11.40;;;3.20;;
28003;SDS011;15330;51.234;6.754;2022-09-25T03:57:49;12.45;;;3.08;;
28003;SDS011;15330;51.234;6.754;2022-09-25T04:00:14;12.70;;;3.90;;
28003;SDS011;15330;51.234;6.754;2022-09-25T04:02:40;19.42;;;3.45;;
28003;SDS011;15330;51.234;6.754;2022-09-25T04:05:06;14.73;;;3.50;;
28003;SDS011;15330;51.234;6.754;2022-09-25T04:07:33;10.45;;;3.60;;
28003;SDS011;15330;51.234;6.754;2022-09-25T04:09:59;18.05;;;3.97;;
28003;SDS011;15330;51.234;6.754;2022-09-25T04:12:24;11.75;;;4.05;;
28003;SDS011;15330;51.234;6.754;2022-09-25T04:14:50;10.55;;;3.75;;
28003;SDS011;15330;51.234;6.754;2022-09-25T04:17:16;12.45;;;4.20;;
28003;SDS011;15330;51.234;6.754;2022-09-25T04:19:42;14.65;;;4.45;;
28003;SDS011;15330;51.234;6.754;2022-09-25T04:22:07;17.20;;;4.15;;
28003;SDS011;15330;51.234;6.754;2022-09-25T04:24:33;15.75;;;3.92;;
28003;SDS011;15330;51.234;6.754;2022-09-25T04:27:17;14.90;;;3.83;;
28003;SDS011;15330;51.234;6.754;2022-09-25T04:29:45;12.40;;;3.97;;
28003;SDS011;15330;51.234;6.754;2022-09-25T04:32:12;12.30;;;4.70;;
28003;SDS011;15330;51.234;6.754;2022-09-25T04:34:58;13.25;;;4.00;;
28003;SDS011;15330;51.234;6.754;2022-09-25T04:37:24;15.93;;;3.85;;
28003;SDS011;15330;51.234;6.754;2022-09-25T04:39:53;9.13;;;4.13;;
28003;SDS011;15330;51.234;6.754;2022-09-25T04:42:20;11.18;;;3.72;;
28003;SDS011;15330;51.234;6.754;2022-09-25T04:44:52;13.75;;;4.03;;
28003;SDS011;15330;51.234;6.754;2022-09-25T04:47:21;18.00;;;3.92;;
28003;SDS011;15330;51.234;6.754;2022-09-25T04:49:48;12.20;;;3.35;;
28003;SDS011;15330;51.234;6.754;2022-09-25T04:52:14;13.32;;;4.05;;
28003;SDS011;15330;51.234;6.754;2022-09-25T04:54:40;6.22;;;2.92;;
28003;SDS011;15330;51.234;6.754;2022-09-25T04:57:06;12.85;;;3.63;;
28003;SDS011;15330;51.234;6.754;2022-09-25T04:59:38;12.45;;;3.70;;
28003;SDS011;15330;51.234;6.754;2022-09-25T05:02:03;17.20;;;3.50;;
28003;SDS011;15330;51.234;6.754;2022-09-25T05:04:29;13.07;;;4.50;;
28003;SDS011;15330;51.234;6.754;2022-09-25T05:06:54;12.00;;;3.10;;
28003;SDS011;15330;51.234;6.754;2022-09-25T05:09:20;11.32;;;3.55;;
28003;SDS011;15330;51.234;6.754;2022-09-25T05:11:45;15.85;;;3.40;;
28003;SDS011;15330;51.234;6.754;2022-09-25T05:14:11;22.00;;;7.80;;
28003;SDS011;15330;51.234;6.754;2022-09-25T05:16:36;13.38;;;3.33;;
28003;SDS011;15330;51.234;6.754;2022-09-25T05:19:02;11.85;;;2.88;;
28003;SDS011;15330;51.234;6.754;2022-09-25T05:21:27;14.43;;;3.40;;
28003;SDS011;15330;51.234;6.754;2022-09-25T05:23:53;13.05;;;2.97;;
28003;SDS011;15330;51.234;6.754;2022-09-25T05:26:20;10.50;;;3.13;;
28003;SDS011;15330;51.234;6.754;2022-09-25T05:28:47;21.00;;;4.25;;
28003;SDS011;15330;51.234;6.754;2022-09-25T05:31:14;16.75;;;5.65;;
28003;SDS011;15330;51.234;6.754;2022-09-25T05:33:40;17.10;;;7.10;;
28003;SDS011;15330;51.234;6.754;2022-09-25T05:36:07;13.38;;;3.50;;
28003;SDS011;15330;51.234;6.754;2022-09-25T05:38:34;15.73;;;9.23;;
28003;SDS011;15330;51.234;6.754;2022-09-25T05:41:04;9.45;;;4.13;;
28003;SDS011;15330;51.234;6.754;2022-09-25T05:43:31;16.85;;;4.93;;
28003;SDS011;15330;51.234;6.754;2022-09-25T05:45:57;10.70;;;2.90;;
28003;SDS011;15330;51.234;6.754;2022-09-25T05:48:24;9.18;;;2.70;;
28003;SDS011;15330;51.234;6.754;2022-09-25T05:50:50;11.93;;;3.00;;
28003;SDS011;15330;51.234;6.754;2022-09-25T05:53:19;9.50;;;3.05;;
28003;SDS011;15330;51.234;6.754;2022-09-25T05:55:49;13.25;;;2.97;;
28003;SDS011;15330;51.234;6.754;2022-09-25T05:58:15;13.63;;;2.47;;
28003;SDS011;15330;51.234;6.754;2022-09-25T06:00:40;9.65;;;2.38;;
28003;SDS011;15330;51.234;6.754;2022-09-25T06:03:06;12.13;;;3.05;;
28003;SDS011;15330;51.234;6.754;2022-09-25T06:05:32;13.73;;;2.30;;
28003;SDS011;15330;51.234;6.754;2022-09-25T06:07:57;9.15;;;2.20;;
28003;SDS011;15330;51.234;6.754;2022-09-25T06:10:23;10.88;;;2.17;;
28003;SDS011;15330;51.234;6.754;2022-09-25T06:12:54;11.02;;;2.63;;
28003;SDS011;15330;51.234;6.754;2022-09-25T06:15:22;19.92;;;2.90;;
28003;SDS011;15330;51.234;6.754;2022-09-25T06:17:48;7.55;;;2.63;;
28003;SDS011;15330;51.234;6.754;2022-09-25T06:20:14;10.10;;;2.22;;
28003;SDS011;15330;51.234;6.754;2022-09-25T06:22:39;14.05;;;2.83;;
28003;SDS011;15330;51.234;6.754;2022-09-25T06:25:04;11.95;;;3.55;;
28003;SDS011;15330;51.234;6.754;2022-09-25T06:27:30;13.75;;;2.67;;
28003;SDS011;15330;51.234;6.754;2022-09-25T06:29:56;8.27;;;2.13;;
28003;SDS011;15330;51.234;6.754;2022-09-25T06:32:21;12.35;;;3.10;;
28003;SDS011;15330;51.234;6.754;2022-09-25T06:34:47;14.50;;;4.20;;
28003;SDS011;15330;51.234;6.754;2022-09-25T06:37:12;12.50;;;2.97;;
28003;SDS011;15330;51.234;6.754;2022-09-25T06:39:38;10.85;;;3.50;;
28003;SDS011;15330;51.234;6.754;2022-09-25T06:42:03;13.20;;;3.15;;
28003;SDS011;15330;51.234;6.754;2022-09-25T06:44:29;10.80;;;3.97;;
28003;SDS011;15330;51.234;6.754;2022-09-25T06:46:54;11.38;;;3.10;;
28003;SDS011;15330;51.234;6.754;2022-09-25T06:49:20;14.43;;;7.50;;
28003;SDS011;15330;51.234;6.754;2022-09-25T06:51:46;12.43;;;4.45;;
28003;SDS011;15330;51.234;6.754;2022-09-25T06:54:11;18.25;;;6.43;;
28003;SDS011;15330;51.234;6.754;2022-09-25T06:56:37;12.63;;;3.90;;
28003;SDS011;15330;51.234;6.754;2022-09-25T06:59:04;15.75;;;4.97;;
28003;SDS011;15330;51.234;6.754;2022-09-25T07:01:29;9.73;;;4.65;;
28003;SDS011;15330;51.234;6.754;2022-09-25T07:03:54;13.38;;;4.95;;
28003;SDS011;15330;51.234;6.754;2022-09-25T07:06:21;16.65;;;5.57;;
28003;SDS011;15330;51.234;6.754;2022-09-25T07:08:50;13.32;;;5.18;;
28003;SDS011;15330;51.234;6.754;2022-09-25T07:11:17;16.13;;;4.53;;
28003;SDS011;15330;51.234;6.754;2022-09-25T07:13:44;15.98;;;7.70;;
28003;SDS011;15330;51.234;6.754;2022-09-25T07:16:13;13.10;;;3.55;;
28003;SDS011;15330;51.234;6.754;2022-09-25T07:18:40;24.40;;;13.45;;
28003;SDS011;15330;51.234;6.754;2022-09-25T07:21:10;17.83;;;8.75;;
28003;SDS011;15330;51.234;6.754;2022-09-25T07:26:06;17.75;;;4.18;;
28003;SDS011;15330;51.234;6.754;2022-09-25T07:28:34;15.60;;;5.03;;
28003;SDS011;15330;51.234;6.754;2022-09-25T07:31:16;15.68;;;7.85;;
28003;SDS011;15330;51.234;6.754;2022-09-25T07:33:50;16.55;;;6.80;;
28003;SDS011;15330;51.234;6.754;2022-09-25T07:36:15;14.18;;;5.60;;
28003;SDS011;15330;51.234;6.754;2022-09-25T07:38:41;15.07;;;5.28;;
28003;SDS011;15330;51.234;6.754;2022-09-25T07:41:10;14.15;;;5.72;;
28003;SDS011;15330;51.234;6.754;2022-09-25T07:43:37;15.52;;;5.30;;
28003;SDS011;15330;51.234;6.754;2022-09-25T07:46:07;13.85;;;4.72;;
28003;SDS011;15330;51.234;6.754;2022-09-25T07:48:32;13.65;;;4.90;;
28003;SDS011;15330;51.234;6.754;2022-09-25T07:50:58;12.73;;;4.28;;
28003;SDS011;15330;51.234;6.754;2022-09-25T07:53:25;22.42;;;6.88;;
28003;SDS011;15330;51.234;6.754;2022-09-25T07:55:50;18.60;;;7.28;;
28003;SDS011;15330;51.234;6.754;2022-09-25T07:58:19;20.00;;;10.40;;
28003;SDS011;15330;51.234;6.754;2022-09-25T08:00:44;17.50;;;8.05;;
28003;SDS011;15330;51.234;6.754;2022-09-25T08:03:10;12.68;;;3.97;;
28003;SDS011;15330;51.234;6.754;2022-09-25T08:05:38;17.70;;;6.70;;
28003;SDS011;15330;51.234;6.754;2022-09-25T08:08:04;19.63;;;5.35;;
28003;SDS011;15330;51.234;6.754;2022-09-25T08:10:29;18.52;;;6.93;;
28003;SDS011;15330;51.234;6.754;2022-09-25T08:12:56;10.90;;;4.68;;
28003;SDS011;15330;51.234;6.754;2022-09-25T08:15:21;13.50;;;6.32;;
28003;SDS011;15330;51.234;6.754;2022-09-25T08:17:47;17.58;;;5.97;;
28003;SDS011;15330;51.234;6.754;2022-09-25T08:20:12;8.98;;;4.60;;
28003;SDS011;15330;51.234;6.754;2022-09-25T08:22:38;9.57;;;4.75;;
28003;SDS011;15330;51.234;6.754;2022-09-25T08:25:03;12.85;;;4.68;;
28003;SDS011;15330;51.234;6.754;2022-09-25T08:27:29;17.67;;;8.25;;
28003;SDS011;15330;51.234;6.754;2022-09-25T08:29:55;14.52;;;5.28;;
28003;SDS011;15330;51.234;6.754;2022-09-25T08:32:21;13.43;;;4.68;;
28003;SDS011;15330;51.234;6.754;2022-09-25T08:34:46;15.18;;;5.95;;
28003;SDS011;15330;51.234;6.754;2022-09-25T08:37:13;14.90;;;5.30;;
28003;SDS011;15330;51.234;6.754;2022-09-25T08:39:39;15.45;;;4.35;;
28003;SDS011;15330;51.234;6.754;2022-09-25T08:42:05;16.48;;;6.80;;
28003;SDS011;15330;51.234;6.754;2022-09-25T08:44:40;14.18;;;4.13;;
28003;SDS011;15330;51.234;6.754;2022-09-25T08:47:18;11.65;;;3.60;;
28003;SDS011;15330;51.234;6.754;2022-09-25T08:50:10;14.02;;;4.32;;
28003;SDS011;15330;51.234;6.754;2022-09-25T08:52:45;13.45;;;4.53;;
28003;SDS011;15330;51.234;6.754;2022-09-25T08:55:19;14.90;;;4.18;;
28003;SDS011;15330;51.234;6.754;2022-09-25T08:58:09;11.77;;;4.30;;
28003;SDS011;15330;51.234;6.754;2022-09-25T09:00:36;16.02;;;4.05;;
28003;SDS011;15330;51.234;6.754;2022-09-25T09:03:02;10.13;;;3.30;;
28003;SDS011;15330;51.234;6.754;2022-09-25T09:05:28;17.73;;;3.40;;
28003;SDS011;15330;51.234;6.754;2022-09-25T09:13:00;13.07;;;3.27;;
28003;SDS011;15330;51.234;6.754;2022-09-25T09:18:20;8.32;;;3.22;;
28003;SDS011;15330;51.234;6.754;2022-09-25T09:20:54;13.75;;;3.05;;
28003;SDS011;15330;51.234;6.754;2022-09-25T09:23:26;5.78;;;2.05;;
28003;SDS011;15330;51.234;6.754;2022-09-25T09:26:19;14.07;;;4.57;;
28003;SDS011;15330;51.234;6.754;2022-09-25T09:28:58;8.52;;;3.20;;
28003;SDS011;15330;51.234;6.754;2022-09-25T09:39:18;8.25;;;1.63;;
28003;SDS011;15330;51.234;6.754;2022-09-25T09:45:01;6.63;;;2.13;;
28003;SDS011;15330;51.234;6.754;2022-09-25T09:48:23;6.88;;;2.20;;
28003;SDS011;15330;51.234;6.754;2022-09-25T09:50:49;5.72;;;2.00;;
28003;SDS011;15330;51.234;6.754;2022-09-25T09:53:31;6.18;;;2.53;;
28003;SDS011;15330;51.234;6.754;2022-09-25T09:56:03;5.45;;;1.98;;
28003;SDS011;15330;51.234;6.754;2022-09-25T09:58:42;6.95;;;1.50;;
28003;SDS011;15330;51.234;6.754;2022-09-25T10:01:22;7.13;;;1.73;;
28003;SDS011;15330;51.234;6.754;2022-09-25T10:03:52;6.70;;;4.90;;
28003;SDS011;15330;51.234;6.754;2022-09-25T10:06:43;5.28;;;2.40;;
28003;SDS011;15330;51.234;6.754;2022-09-25T10:09:14;5.38;;;2.22;;
28003;SDS011;15330;51.234;6.754;2022-09-25T10:11:40;4.65;;;1.90;;
28003;SDS011;15330;51.234;6.754;2022-09-25T10:14:10;4.72;;;2.63;;
28003;SDS011;15330;51.234;6.754;2022-09-25T10:16:44;5.88;;;1.95;;
28003;SDS011;15330;51.234;6.754;2022-09-25T10:19:21;6.13;;;1.80;;
28003;SDS011;15330;51.234;6.754;2022-09-25T10:22:04;7.47;;;2.67;;
28003;SDS011;15330;51.234;6.754;2022-09-25T10:27:19;10.27;;;3.15;;
28003;SDS011;15330;51.234;6.754;2022-09-25T10:29:45;11.77;;;3.42;;
28003;SDS011;15330;51.234;6.754;2022-09-25T10:32:10;12.10;;;4.07;;
28003;SDS011;15330;51.234;6.754;2022-09-25T10:34:36;8.07;;;2.75;;
28003;SDS011;15330;51.234;6.754;2022-09-25T10:37:12;5.18;;;2.20;;
28003;SDS011;15330;51.234;6.754;2022-09-25T10:39:44;7.25;;;2.80;;
28003;SDS011;15330;51.234;6.754;2022-09-25T10:42:46;10.10;;;2.50;;
28003;SDS011;15330;51.234;6.754;2022-09-25T10:45:14;10.18;;;3.10;;
28003;SDS011;15330;51.234;6.754;2022-09-25T10:47:46;9.38;;;3.15;;
28003;SDS011;15330;51.234;6.754;2022-09-25T10:50:32;5.43;;;2.83;;
28003;SDS011;15330;51.234;6.754;2022-09-25T10:52:59;9.80;;;3.97;;
28003;SDS011;15330;51.234;6.754;2022-09-25T10:55:30;8.18;;;3.88;;
28003;SDS011;15330;51.234;6.754;2022-09-25T10:58:19;9.05;;;3.97;;
28003;SDS011;15330;51.234;6.754;2022-09-25T11:03:26;8.67;;;3.53;;
28003;SDS011;15330;51.234;6.754;2022-09-25T11:08:25;5.53;;;2.20;;
28003;SDS011;15330;51.234;6.754;2022-09-25T11:10:58;8.00;;;2.53;;
28003;SDS011;15330;51.234;6.754;2022-09-25T11:13:26;7.22;;;2.85;;
28003;SDS011;15330;51.234;6.754;2022-09-25T11:15:58;10.35;;;3.10;;
28003;SDS011;15330;51.234;6.754;2022-09-25T11:21:02;9.23;;;3.03;;
28003;SDS011;15330;51.234;6.754;2022-09-25T11:26:35;7.75;;;2.63;;
28003;SDS011;15330;51.234;6.754;2022-09-25T11:31:46;6.95;;;2.40;;
28003;SDS011;15330;51.234;6.754;2022-09-25T11:34:22;7.28;;;1.95;;
28003;SDS011;15330;51.234;6.754;2022-09-25T11:37:11;5.63;;;1.60;;
28003;SDS011;15330;51.234;6.754;2022-09-25T11:39:47;5.82;;;3.03;;
28003;SDS011;15330;51.234;6.754;2022-09-25T11:42:57;7.53;;;2.35;;
28003;SDS011;15330;51.234;6.754;2022-09-25T11:45:36;6.97;;;2.63;;
28003;SDS011;15330;51.234;6.754;2022-09-25T11:48:15;8.45;;;3.15;;
28003;SDS011;15330;51.234;6.754;2022-09-25T11:50:56;12.27;;;3.30;;
28003;SDS011;15330;51.234;6.754;2022-09-25T11:56:35;8.75;;;3.90;;
28003;SDS011;15330;51.234;6.754;2022-09-25T12:02:09;7.50;;;2.50;;
28003;SDS011;15330;51.234;6.754;2022-09-25T12:05:05;9.63;;;2.33;;
28003;SDS011;15330;51.234;6.754;2022-09-25T12:08:02;6.65;;;2.42;;
28003;SDS011;15330;51.234;6.754;2022-09-25T12:10:43;8.38;;;2.00;;
28003;SDS011;15330;51.234;6.754;2022-09-25T12:13:14;4.55;;;1.92;;
28003;SDS011;15330;51.234;6.754;2022-09-25T12:29:55;4.72;;;1.80;;
28003;SDS011;15330;51.234;6.754;2022-09-25T12:38:01;4.95;;;1.33;;
28003;SDS011;15330;51.234;6.754;2022-09-25T12:40:36;5.63;;;1.98;;
28003;SDS011;15330;51.234;6.754;2022-09-25T12:45:59;7.25;;;1.55;;
28003;SDS011;15330;51.234;6.754;2022-09-25T12:48:38;4.00;;;1.40;;
28003;SDS011;15330;51.234;6.754;2022-09-25T12:51:15;5.78;;;1.83;;
28003;SDS011;15330;51.234;6.754;2022-09-25T12:53:49;10.27;;;2.15;;
28003;SDS011;15330;51.234;6.754;2022-09-25T12:56:24;4.70;;;1.50;;
28003;SDS011;15330;51.234;6.754;2022-09-25T12:59:05;4.97;;;1.73;;
28003;SDS011;15330;51.234;6.754;2022-09-25T13:05:00;5.85;;;1.55;;
28003;SDS011;15330;51.234;6.754;2022-09-25T13:07:16;10.75;;;2.00;;
28003;SDS011;15330;51.234;6.754;2022-09-25T13:09:47;6.63;;;2.13;;
28003;SDS011;15330;51.234;6.754;2022-09-25T13:15:10;4.88;;;1.38;;
28003;SDS011;15330;51.234;6.754;2022-09-25T13:17:40;4.20;;;1.67;;
28003;SDS011;15330;51.234;6.754;2022-09-25T13:20:49;6.18;;;1.23;;
28003;SDS011;15330;51.234;6.754;2022-09-25T13:25:47;6.88;;;2.78;;
28003;SDS011;15330;51.234;6.754;2022-09-25T13:28:35;6.28;;;1.42;;
28003;SDS011;15330;51.234;6.754;2022-09-25T13:31:12;5.53;;;2.40;;
28003;SDS011;15330;51.234;6.754;2022-09-25T13:34:19;2.72;;;1.00;;
28003;SDS011;15330;51.234;6.754;2022-09-25T13:36:48;14.98;;;4.43;;
28003;SDS011;15330;51.234;6.754;2022-09-25T13:42:13;8.20;;;3.65;;
28003;SDS011;15330;51.234;6.754;2022-09-25T13:44:49;2.30;;;0.93;;
28003;SDS011;15330;51.234;6.754;2022-09-25T13:49:50;9.60;;;2.33;;
28003;SDS011;15330;51.234;6.754;2022-09-25T14:00:22;6.63;;;2.17;;
28003;SDS011;15330;51.234;6.754;2022-09-25T14:05:55;5.13;;;1.73;;
28003;SDS011;15330;51.234;6.754;2022-09-25T14:08:22;5.95;;;1.00;;
28003;SDS011;15330;51.234;6.754;2022-09-25T14:10:50;2.60;;;1.15;;
28003;SDS011;15330;51.234;6.754;2022-09-25T14:13:19;1.17;;;0.90;;
28003;SDS011;15330;51.234;6.754;2022-09-25T14:15:47;4.28;;;1.77;;
28003;SDS011;15330;51.234;6.754;2022-09-25T14:18:19;4.95;;;1.17;;
28003;SDS011;15330;51.234;6.754;2022-09-25T14:20:46;3.65;;;1.52;;
28003;SDS011;15330;51.234;6.754;2022-09-25T14:23:24;6.25;;;1.70;;
28003;SDS011;15330;51.234;6.754;2022-09-25T14:28:30;6.05;;;2.30;;
28003;SDS011;15330;51.234;6.754;2022-09-25T14:31:04;4.50;;;1.15;;
28003;SDS011;15330;51.234;6.754;2022-09-25T14:42:33;4.65;;;1.30;;
28003;SDS011;15330;51.234;6.754;2022-09-25T14:45:20;5.00;;;1.45;;
28003;SDS011;15330;51.234;6.754;2022-09-25T14:47:59;7.53;;;2.13;;
28003;SDS011;15330;51.234;6.754;2022-09-25T14:50:29;2.75;;;1.08;;
28003;SDS011;15330;51.234;6.754;2022-09-25T14:53:04;2.85;;;1.10;;
28003;SDS011;15330;51.234;6.754;2022-09-25T14:55:36;2.30;;;0.75;;
28003;SDS011;15330;51.234;6.754;2022-09-25T14:58:08;5.80;;;1.20;;
28003;SDS011;15330;51.234;6.754;2022-09-25T15:00:42;2.88;;;1.02;;
28003;SDS011;15330;51.234;6.754;2022-09-25T15:03:13;2.58;;;0.70;;
28003;SDS011;15330;51.234;6.754;2022-09-25T15:05:47;3.58;;;1.15;;
28003;SDS011;15330;51.234;6.754;2022-09-25T15:08:30;4.07;;;0.85;;
28003;SDS011;15330;51.234;6.754;2022-09-25T15:11:02;2.22;;;0.90;;
28003;SDS011;15330;51.234;6.754;2022-09-25T15:13:35;2.13;;;0.90;;
28003;SDS011;15330;51.234;6.754;2022-09-25T15:16:01;5.10;;;2.58;;
28003;SDS011;15330;51.234;6.754;2022-09-25T15:18:49;4.22;;;0.88;;
28003;SDS011;15330;51.234;6.754;2022-09-25T15:23:49;18.10;;;6.53;;
28003;SDS011;15330;51.234;6.754;2022-09-25T15:26:17;18.48;;;7.63;;
28003;SDS011;15330;51.234;6.754;2022-09-25T15:28:42;7.97;;;4.07;;
28003;SDS011;15330;51.234;6.754;2022-09-25T15:31:08;3.03;;;1.10;;
28003;SDS011;15330;51.234;6.754;2022-09-25T15:33:35;4.47;;;2.13;;
28003;SDS011;15330;51.234;6.754;2022-09-25T15:36:14;15.88;;;7.60;;
28003;SDS011;15330;51.234;6.754;2022-09-25T15:38:41;7.10;;;2.33;;
28003;SDS011;15330;51.234;6.754;2022-09-25T15:41:11;4.68;;;1.60;;
28003;SDS011;15330;51.234;6.754;2022-09-25T15:43:39;4.72;;;1.38;;
28003;SDS011;15330;51.234;6.754;2022-09-25T15:48:37;3.20;;;0.80;;
28003;SDS011;15330;51.234;6.754;2022-09-25T15:51:24;7.80;;;2.88;;
28003;SDS011;15330;51.234;6.754;2022-09-25T15:53:55;5.53;;;1.27;;
28003;SDS011;15330;51.234;6.754;2022-09-25T15:56:24;4.00;;;0.77;;
28003;SDS011;15330;51.234;6.754;2022-09-25T16:01:23;5.97;;;1.05;;
28003;SDS011;15330;51.234;6.754;2022-09-25T16:04:19;2.30;;;0.70;;
28003;SDS011;15330;51.234;6.754;2022-09-25T16:15:02;2.90;;;1.10;;
28003;SDS011;15330;51.234;6.754;2022-09-25T16:17:51;3.40;;;1.10;;
28003;SDS011;15330;51.234;6.754;2022-09-25T16:20:28;27.98;;;12.52;;
28003;SDS011;15330;51.234;6.754;2022-09-25T16:22:55;8.30;;;3.13;;
28003;SDS011;15330;51.234;6.754;2022-09-25T16:25:27;3.80;;;1.00;;
28003;SDS011;15330;51.234;6.754;2022-09-25T16:28:05;5.22;;;1.58;;
28003;SDS011;15330;51.234;6.754;2022-09-25T16:30:31;3.72;;;1.20;;
28003;SDS011;15330;51.234;6.754;2022-09-25T16:33:02;3.70;;;1.52;;
28003;SDS011;15330;51.234;6.754;2022-09-25T16:35:37;4.05;;;1.20;;
28003;SDS011;15330;51.234;6.754;2022-09-25T16:38:04;4.65;;;1.42;;
28003;SDS011;15330;51.234;6.754;2022-09-25T16:40:31;4.30;;;1.00;;
28003;SDS011;15330;51.234;6.754;2022-09-25T16:42:58;2.47;;;0.82;;
28003;SDS011;15330;51.234;6.754;2022-09-25T16:47:57;3.20;;;0.90;;
28003;SDS011;15330;51.234;6.754;2022-09-25T16:50:24;2.83;;;1.02;;
28003;SDS011;15330;51.234;6.754;2022-09-25T16:52:52;2.28;;;0.70;;
28003;SDS011;15330;51.234;6.754;2022-09-25T16:55:22;3.28;;;1.00;;
28003;SDS011;15330;51.234;6.754;2022-09-25T16:57:50;1.98;;;0.68;;
28003;SDS011;15330;51.234;6.754;2022-09-25T17:00:19;1.88;;;0.63;;
28003;SDS011;15330;51.234;6.754;2022-09-25T17:02:49;6.68;;;3.53;;
28003;SDS011;15330;51.234;6.754;2022-09-25T17:05:23;2.33;;;0.90;;
28003;SDS011;15330;51.234;6.754;2022-09-25T17:07:51;2.97;;;1.52;;
28003;SDS011;15330;51.234;6.754;2022-09-25T17:10:19;2.33;;;1.00;;
28003;SDS011;15330;51.234;6.754;2022-09-25T17:12:47;3.35;;;0.90;;
28003;SDS011;15330;51.234;6.754;2022-09-25T17:15:16;1.67;;;0.68;;
28003;SDS011;15330;51.234;6.754;2022-09-25T17:17:50;1.42;;;0.70;;
28003;SDS011;15330;51.234;6.754;2022-09-25T17:20:22;0.80;;;0.70;;
28003;SDS011;15330;51.234;6.754;2022-09-25T17:22:52;3.97;;;0.90;;
28003;SDS011;15330;51.234;6.754;2022-09-25T17:25:33;5.20;;;1.50;;
28003;SDS011;15330;51.234;6.754;2022-09-25T17:28:03;3.83;;;1.95;;
28003;SDS011;15330;51.234;6.754;2022-09-25T17:30:30;2.95;;;1.48;;
28003;SDS011;15330;51.234;6.754;2022-09-25T17:32:55;4.28;;;0.90;;
28003;SDS011;15330;51.234;6.754;2022-09-25T17:35:29;1.50;;;0.60;;
28003;SDS011;15330;51.234;6.754;2022-09-25T17:37:59;2.20;;;1.10;;